Time;durP1;ratioP1;P1;durP2;ratioP2;P2;SDS_P1;SDS_P2;PMS_P1;PMS_P2;Temp;Humidity;BMP_temperature;BMP_pressure;BME280_temperature;BME280_humidity;BME280_pressure;Samples;Min_cycle;Max_cycle;Signal;HPM_P1;HPM_P2
2023/05/31 00:00:14;;;;;;;;;;;;;;;12.43;65.15;102505.97;5047305;28;19921;-68
2023/05/31 00:02:39;;;;;;;;;;;;;;;12.41;66.66;102504.22;5044170;28;20468;-68
2023/05/31 00:05:05;;;;;;;;;;;;;;;12.37;65.29;102508.66;5051417;28;20099;-68
2023/05/31 00:07:30;;;;;;;;;;;;;;;12.34;65.00;102503.38;5053858;28;19979;-68
2023/05/31 00:09:56;;;;;;;;;;;;;;;12.34;64.70;102508.69;5054038;28;19956;-68
2023/05/31 00:12:21;;;;;;;;;;;;;;;12.33;64.96;102506.03;5053979;28;19932;-68
2023/05/31 00:14:46;;;;;;;;;;;;;;;12.32;65.06;102499.84;5053885;28;19916;-68
2023/05/31 00:17:12;;;;;;;;;;;;;;;12.29;67.43;102499.84;5053006;28;19916;-68
2023/05/31 00:19:37;;;;;;;;;;;;;;;12.25;65.96;102496.28;5053606;28;19916;-68
2023/05/31 00:22:03;;;;;;;;;;;;;;;12.21;65.35;102498.97;5053911;28;19921;-67
2023/05/31 00:24:28;;;;;;;;;;;;;;;12.16;65.67;102498.97;5053730;28;19921;-68
2023/05/31 00:26:53;;;;;;;;;;;;;;;12.14;67.48;102499.84;5053539;28;19936;-68
2023/05/31 00:29:19;;;;;;;;;;;;;;;12.14;67.51;102502.50;5052133;28;19960;-68
2023/05/31 00:31:44;;;;;;;;;;;;;;;12.12;67.74;102499.88;5052375;28;19917;-68
2023/05/31 00:34:11;;;;;;;;;;;;;;;12.13;65.98;102503.41;5053375;28;19912;-68
2023/05/31 00:36:37;;;;;;;;;;;;;;;12.07;68.04;102501.66;5053666;28;20380;-68
2023/05/31 00:39:03;;;;;;;;;;;;;;;12.02;69.08;102496.34;5053214;28;19927;-68
2023/05/31 00:41:28;;;;;;;;;;;;;;;12.01;68.30;102491.03;5052064;28;20316;-67
2023/05/31 00:43:53;;;;;;;;;;;;;;;11.97;68.20;102502.56;5053109;28;19963;-68
2023/05/31 00:46:27;;;;;;;;;;;;;;;11.97;69.47;102495.47;5053120;28;19925;-68
2023/05/31 00:48:53;;;;;;;;;;;;;;;11.98;69.36;102497.22;5052999;28;19917;-68
2023/05/31 00:51:19;;;;;;;;;;;;;;;11.98;70.34;102504.31;5047826;28;19969;-68
2023/05/31 00:53:45;;;;;;;;;;;;;;;11.98;70.57;102505.19;5048643;28;20326;-68
2023/05/31 00:56:11;;;;;;;;;;;;;;;11.95;68.03;102513.16;5051195;28;19963;-68
2023/05/31 00:58:37;;;;;;;;;;;;;;;11.93;69.68;102509.63;5041238;28;19959;-68
2023/05/31 01:01:03;;;;;;;;;;;;;;;11.91;68.11;102508.75;5037599;28;19917;-68
2023/05/31 01:03:28;;;;;;;;;;;;;;;11.89;70.77;102507.84;5053217;28;19928;-68
2023/05/31 01:05:55;;;;;;;;;;;;;;;11.85;68.54;102511.38;5047903;28;19925;-68
2023/05/31 01:08:21;;;;;;;;;;;;;;;11.82;70.37;102514.03;5042777;28;19920;-68
2023/05/31 01:10:49;;;;;;;;;;;;;;;11.79;66.75;102514.03;5052804;28;20232;-68
2023/05/31 01:13:37;;;;;;;;;;;;;;;11.79;70.80;102512.28;5051235;28;20298;-68
2023/05/31 01:16:15;;;;;;;;;;;;;;;11.75;71.31;102512.28;5048697;28;19917;-68
2023/05/31 01:18:44;;;;;;;;;;;;;;;11.70;71.94;102504.31;5039658;28;20328;-68
2023/05/31 01:21:11;;;;;;;;;;;;;;;11.67;71.63;102503.41;5052892;28;20026;-68
2023/05/31 01:23:55;;;;;;;;;;;;;;;11.65;71.71;102499.84;5037182;28;20350;-68
2023/05/31 01:26:35;;;;;;;;;;;;;;;11.59;72.44;102504.28;5052540;28;20368;-68
2023/05/31 01:29:03;;;;;;;;;;;;;;;11.56;71.95;102504.28;5052468;28;19917;-68
2023/05/31 01:31:30;;;;;;;;;;;;;;;11.53;70.75;102504.28;5052350;28;20342;-68
2023/05/31 01:33:55;;;;;;;;;;;;;;;11.53;71.09;102508.72;5052472;28;19916;-67
2023/05/31 01:36:22;;;;;;;;;;;;;;;11.51;71.23;102516.66;5051118;28;19977;-67
2023/05/31 01:38:47;;;;;;;;;;;;;;;11.47;71.35;102504.28;5052259;28;20279;-68
2023/05/31 01:41:14;;;;;;;;;;;;;;;11.43;72.25;102507.81;5052277;28;19948;-68
2023/05/31 01:43:44;;;;;;;;;;;;;;;11.43;74.20;102506.94;5052005;28;19916;-68
2023/05/31 01:46:10;;;;;;;;;;;;;;;11.40;72.84;102514.00;5052152;28;19961;-68
2023/05/31 01:48:36;;;;;;;;;;;;;;;11.39;71.29;102506.91;5050681;28;19921;-68
2023/05/31 01:51:02;;;;;;;;;;;;;;;11.39;73.55;102496.31;5052277;28;19921;-68
2023/05/31 01:53:28;;;;;;;;;;;;;;;11.37;72.26;102490.16;5051868;28;20062;-67
2023/05/31 01:55:54;;;;;;;;;;;;;;;11.34;75.36;102498.06;5050465;28;20000;-68
2023/05/31 01:58:20;;;;;;;;;;;;;;;11.30;74.27;102490.09;5033731;28;19917;-68
2023/05/31 02:00:47;;;;;;;;;;;;;;;11.27;74.72;102495.41;5047049;28;19921;-68
2023/05/31 02:03:13;;;;;;;;;;;;;;;11.23;74.07;102493.66;5045443;28;19925;-67
2023/05/31 02:05:53;;;;;;;;;;;;;;;11.20;75.69;102494.50;5036467;28;19932;-68
2023/05/31 02:08:18;;;;;;;;;;;;;;;11.17;75.14;102475.94;5040833;28;19921;-67
2023/05/31 02:10:44;;;;;;;;;;;;;;;11.17;75.85;102486.56;5031859;28;19985;-68
2023/05/31 02:13:12;;;;;;;;;;;;;;;11.16;74.87;102487.44;5050417;28;19936;-68
2023/05/31 02:15:41;;;;;;;;;;;;;;;11.14;73.87;102487.44;5046903;28;19978;-68
2023/05/31 02:18:07;;;;;;;;;;;;;;;11.12;73.52;102481.22;5050284;28;19912;-68
2023/05/31 02:20:33;;;;;;;;;;;;;;;11.08;73.94;102479.47;5051710;28;19921;-68
2023/05/31 02:23:00;;;;;;;;;;;;;;;11.06;73.46;102483.88;5051439;28;19928;-68
2023/05/31 02:25:25;;;;;;;;;;;;;;;11.03;73.42;102488.28;5050383;28;19921;-68
2023/05/31 02:27:51;;;;;;;;;;;;;;;11.00;73.48;102482.97;5051418;28;19921;-68
2023/05/31 02:30:17;;;;;;;;;;;;;;;10.96;75.05;102482.97;5051567;28;19966;-68
2023/05/31 02:32:42;;;;;;;;;;;;;;;10.96;74.25;102480.31;5051609;28;20326;-69
2023/05/31 02:35:09;;;;;;;;;;;;;;;10.96;74.56;102484.75;5036240;28;19917;-69
2023/05/31 02:37:35;;;;;;;;;;;;;;;10.95;75.32;102486.53;5050100;28;19917;-69
2023/05/31 02:40:01;;;;;;;;;;;;;;;10.94;74.51;102473.25;5054210;28;19922;-69
2023/05/31 02:42:28;;;;;;;;;;;;;;;10.93;74.03;102484.75;5055673;28;20409;-69
2023/05/31 02:44:53;;;;;;;;;;;;;;;10.91;74.46;102479.44;5055540;28;19925;-69
2023/05/31 02:47:21;;;;;;;;;;;;;;;10.91;74.75;102490.03;5053170;28;20273;-69
2023/05/31 02:49:46;;;;;;;;;;;;;;;10.90;76.34;102482.06;5037277;28;19920;-69
2023/05/31 02:52:13;;;;;;;;;;;;;;;10.89;78.01;102482.97;5037465;28;20330;-69
2023/05/31 02:54:59;;;;;;;;;;;;;;;10.86;77.04;102478.53;5053578;28;20334;-69
2023/05/31 02:57:28;;;;;;;;;;;;;;;10.87;76.22;102490.00;5044886;28;19931;-69
2023/05/31 02:59:58;;;;;;;;;;;;;;;10.88;75.36;102482.09;5067005;28;19921;-69
2023/05/31 03:02:24;;;;;;;;;;;;;;;10.86;74.71;102485.59;5054980;28;19917;-75
2023/05/31 03:04:52;;;;;;;;;;;;;;;10.82;75.92;102483.81;5055624;28;19913;-76
2023/05/31 03:07:17;;;;;;;;;;;;;;;10.81;75.77;102476.75;5053555;28;20011;-76
2023/05/31 03:09:44;;;;;;;;;;;;;;;10.80;75.54;102475.84;5054252;28;19928;-76
2023/05/31 03:12:10;;;;;;;;;;;;;;;10.77;78.33;102478.50;5053505;28;20291;-76
2023/05/31 03:14:36;;;;;;;;;;;;;;;10.75;77.24;102482.91;5053473;28;19986;-76
2023/05/31 03:17:01;;;;;;;;;;;;;;;10.72;76.71;102489.06;5053440;28;19921;-76
2023/05/31 03:19:27;;;;;;;;;;;;;;;10.69;78.60;102486.41;5066889;28;19921;-75
2023/05/31 03:21:53;;;;;;;;;;;;;;;10.68;76.42;102492.63;5053621;28;20368;-76
2023/05/31 03:24:19;;;;;;;;;;;;;;;10.66;76.64;102489.06;5053238;28;19912;-76
2023/05/31 03:26:46;;;;;;;;;;;;;;;10.65;75.40;102487.28;5053489;28;19977;-76
2023/05/31 03:29:12;;;;;;;;;;;;;;;10.65;76.79;102486.41;5054382;28;20007;-76
2023/05/31 03:31:37;;;;;;;;;;;;;;;10.64;76.33;102484.63;5064999;28;19924;-76
2023/05/31 03:34:02;;;;;;;;;;;;;;;10.61;75.82;102487.25;5052994;28;20317;-77
2023/05/31 03:36:28;;;;;;;;;;;;;;;10.60;78.16;102485.50;5070034;28;20391;-76
2023/05/31 03:38:54;;;;;;;;;;;;;;;10.59;79.49;102481.09;5053126;28;19924;-76
2023/05/31 03:41:20;;;;;;;;;;;;;;;10.59;79.23;102475.78;5053005;28;20272;-77
2023/05/31 03:43:46;;;;;;;;;;;;;;;10.59;78.35;102478.44;5053076;28;19924;-77
2023/05/31 03:46:11;;;;;;;;;;;;;;;10.58;77.01;102479.28;5042770;28;19925;-77
2023/05/31 03:48:37;;;;;;;;;;;;;;;10.57;77.07;102467.81;5054437;28;20020;-77
2023/05/31 03:51:02;;;;;;;;;;;;;;;10.56;77.84;102466.06;5051630;28;19921;-76
2023/05/31 03:53:28;;;;;;;;;;;;;;;10.56;77.85;102476.66;5036497;28;20015;-77
2023/05/31 03:55:53;;;;;;;;;;;;;;;10.56;78.07;102479.31;5058844;28;20015;-76
2023/05/31 03:58:20;;;;;;;;;;;;;;;10.59;78.36;102483.72;5050615;28;19935;-77
2023/05/31 04:00:46;;;;;;;;;;;;;;;10.60;77.48;102472.25;5069647;28;20016;-77
2023/05/31 04:03:12;;;;;;;;;;;;;;;10.62;77.75;102476.66;5053875;28;19976;-77
2023/05/31 04:05:38;;;;;;;;;;;;;;;10.64;77.81;102480.22;5052991;28;20205;-76
2023/05/31 04:08:04;;;;;;;;;;;;;;;10.64;78.80;102484.63;5069191;28;19994;-76
2023/05/31 04:10:31;;;;;;;;;;;;;;;10.65;78.32;102471.38;5036258;28;19960;-76
2023/05/31 04:12:56;;;;;;;;;;;;;;;10.67;78.42;102474.91;5052470;28;20301;-76
2023/05/31 04:15:22;;;;;;;;;;;;;;;10.67;78.17;102471.41;5052530;28;19924;-77
2023/05/31 04:17:50;;;;;;;;;;;;;;;10.70;78.42;102479.34;5052166;28;19944;-77
2023/05/31 04:20:16;;;;;;;;;;;;;;;10.73;78.57;102488.22;5052318;28;19920;-77
2023/05/31 04:22:41;;;;;;;;;;;;;;;10.73;79.33;102482.00;5064484;28;19920;-77
2023/05/31 04:25:08;;;;;;;;;;;;;;;10.74;78.06;102479.38;5052432;28;19932;-77
2023/05/31 04:27:40;;;;;;;;;;;;;;;10.75;78.09;102480.25;5065741;28;19928;-77
2023/05/31 04:30:06;;;;;;;;;;;;;;;10.75;79.29;102469.66;5052179;28;20047;-77
2023/05/31 04:32:34;;;;;;;;;;;;;;;10.75;78.53;102478.47;5053511;28;20320;-77
2023/05/31 04:35:04;;;;;;;;;;;;;;;10.79;78.56;102478.50;5052216;28;20012;-78
2023/05/31 04:37:32;;;;;;;;;;;;;;;10.80;76.05;102478.50;5035743;28;19917;-77
2023/05/31 04:40:00;;;;;;;;;;;;;;;10.84;77.89;102476.75;5061950;28;19982;-77
2023/05/31 04:42:26;;;;;;;;;;;;;;;10.89;78.46;102475.88;5051871;28;20046;-77
2023/05/31 04:44:57;;;;;;;;;;;;;;;10.91;77.84;102479.44;5051971;28;19916;-78
2023/05/31 04:47:29;;;;;;;;;;;;;;;10.96;79.02;102479.44;5068050;28;19933;-78
2023/05/31 04:49:58;;;;;;;;;;;;;;;11.00;80.88;102481.19;5051823;28;19921;-78
2023/05/31 04:52:27;;;;;;;;;;;;;;;11.04;80.03;102490.06;5051445;28;19939;-77
2023/05/31 04:54:55;;;;;;;;;;;;;;;11.10;77.49;102490.06;5051901;28;19926;-78
2023/05/31 04:57:22;;;;;;;;;;;;;;;11.16;79.71;102492.75;5049261;28;19920;-77
2023/05/31 04:59:49;;;;;;;;;;;;;;;11.21;80.30;102496.28;5050972;28;19917;-77
2023/05/31 05:02:15;;;;;;;;;;;;;;;11.28;79.33;102481.28;5050964;28;19971;-78
2023/05/31 05:04:41;;;;;;;;;;;;;;;11.35;80.42;102491.00;5051422;28;19917;-78
2023/05/31 05:07:07;;;;;;;;;;;;;;;11.41;79.77;102491.00;5051440;28;20368;-78
2023/05/31 05:09:33;;;;;;;;;;;;;;;11.48;81.52;102487.50;5051117;28;20015;-77
2023/05/31 05:11:58;;;;;;;;;;;;;;;11.58;82.08;102489.25;5051318;28;19921;-78
2023/05/31 05:14:24;;;;;;;;;;;;;;;11.66;79.77;102486.59;5043344;28;19979;-78
2023/05/31 05:16:49;;;;;;;;;;;;;;;11.74;81.63;102482.16;5046838;28;19921;-78
2023/05/31 05:19:14;;;;;;;;;;;;;;;11.81;80.92;102481.28;5034690;28;19990;-77
2023/05/31 05:21:42;;;;;;;;;;;;;;;11.91;81.82;102483.97;5035250;28;19928;-77
2023/05/31 05:24:09;;;;;;;;;;;;;;;12.00;79.36;102487.50;5053526;28;19923;-78
2023/05/31 05:26:35;;;;;;;;;;;;;;;12.10;80.81;102484.84;5067434;28;20391;-77
2023/05/31 05:29:01;;;;;;;;;;;;;;;12.18;78.23;102496.31;5067617;28;19924;-77
2023/05/31 05:31:26;;;;;;;;;;;;;;;12.27;79.31;102491.00;5034422;28;19931;-78
2023/05/31 05:33:54;;;;;;;;;;;;;;;12.33;78.98;102496.28;5050716;28;19932;-78
2023/05/31 05:36:19;;;;;;;;;;;;;;;12.40;77.61;102492.72;5051128;28;19921;-77
2023/05/31 05:38:49;;;;;;;;;;;;;;;12.47;79.92;102496.25;5050768;28;20290;-78
2023/05/31 05:41:16;;;;;;;;;;;;;;;12.52;77.31;102497.13;5050826;28;19947;-77
2023/05/31 05:43:42;;;;;;;;;;;;;;;12.62;80.18;102498.84;5034171;28;19920;-78
2023/05/31 05:46:11;;;;;;;;;;;;;;;12.66;77.86;102495.28;5050280;28;19970;-78
2023/05/31 05:48:37;;;;;;;;;;;;;;;12.72;79.24;102496.16;5059705;28;19929;-77
2023/05/31 05:51:03;;;;;;;;;;;;;;;12.76;77.57;102500.53;5050692;28;20356;-77
2023/05/31 05:53:29;;;;;;;;;;;;;;;12.83;77.10;102497.88;5033904;28;19958;-77
2023/05/31 05:55:56;;;;;;;;;;;;;;;12.94;77.32;102496.94;5049904;28;19917;-77
2023/05/31 05:58:26;;;;;;;;;;;;;;;13.05;75.04;102497.75;5048026;28;20288;-78
2023/05/31 06:01:26;;;;;;;;;;;;;;;13.16;75.71;102495.03;5037202;28;20288;-77
2023/05/31 06:03:54;;;;;;;;;;;;;;;13.24;77.51;102495.88;5063457;28;20023;-77
2023/05/31 06:06:21;;;;;;;;;;;;;;;13.32;78.35;102491.41;5034150;28;19921;-77
2023/05/31 06:08:46;;;;;;;;;;;;;;;13.38;77.09;102499.34;5051768;28;19929;-77
2023/05/31 06:11:13;;;;;;;;;;;;;;;13.43;77.78;102500.22;5050452;28;19917;-78
2023/05/31 06:13:38;;;;;;;;;;;;;;;13.49;75.83;102499.28;5049608;28;19925;-77
2023/05/31 06:16:05;;;;;;;;;;;;;;;13.58;77.62;102496.53;5033890;28;20451;-77
2023/05/31 06:18:31;;;;;;;;;;;;;;;13.67;76.42;102503.56;5038435;28;19921;-77
2023/05/31 06:20:56;;;;;;;;;;;;;;;13.77;73.96;102492.84;5052125;28;19921;-77
2023/05/31 06:23:21;;;;;;;;;;;;;;;13.87;75.08;102493.63;5040251;28;20393;-77
2023/05/31 06:25:47;;;;;;;;;;;;;;;13.94;75.37;102494.44;5046109;28;19921;-77
2023/05/31 06:28:12;;;;;;;;;;;;;;;14.07;74.21;102501.44;5050153;28;19966;-77
2023/05/31 06:30:41;;;;;;;;;;;;;;;14.18;71.90;102504.84;5067190;28;19920;-77
2023/05/31 06:33:07;;;;;;;;;;;;;;;14.25;72.98;102502.16;5066749;28;20326;-77
2023/05/31 06:35:32;;;;;;;;;;;;;;;14.30;72.09;102508.31;5066880;28;19917;-77
2023/05/31 06:37:59;;;;;;;;;;;;;;;14.36;70.81;102500.22;5066821;28;19921;-76
2023/05/31 06:40:24;;;;;;;;;;;;;;;14.41;73.06;102509.97;5056783;28;20291;-77
2023/05/31 06:42:50;;;;;;;;;;;;;;;14.45;72.31;102508.13;5049914;28;19951;-77
2023/05/31 06:45:25;;;;;;;;;;;;;;;14.57;72.53;102509.81;5050197;28;19921;-77
2023/05/31 06:47:51;;;;;;;;;;;;;;;14.68;73.37;102504.34;5051125;28;19978;-77
2023/05/31 06:50:19;;;;;;;;;;;;;;;14.77;72.38;102506.91;5050260;28;19921;-77
2023/05/31 06:52:44;;;;;;;;;;;;;;;14.84;72.50;102504.13;5049983;28;19912;-76
2023/05/31 06:55:48;;;;;;;;;;;;;;;14.92;71.93;102504.03;5049175;28;19921;-77
2023/05/31 06:58:17;;;;;;;;;;;;;;;15.00;71.99;102496.78;5039263;28;20054;-77
2023/05/31 07:00:45;;;;;;;;;;;;;;;15.10;71.86;102500.22;5051782;28;20283;-76
2023/05/31 07:03:11;;;;;;;;;;;;;;;15.19;70.90;102499.22;5049988;28;20011;-77
2023/05/31 07:05:37;;;;;;;;;;;;;;;15.28;69.54;102509.72;5050909;28;19909;-77
2023/05/31 07:08:03;;;;;;;;;;;;;;;15.35;70.29;102505.19;5051459;28;19998;-77
2023/05/31 07:10:33;;;;;;;;;;;;;;;15.46;69.63;102505.91;5064801;28;19924;-77
2023/05/31 07:12:58;;;;;;;;;;;;;;;15.61;70.38;102502.13;5049664;28;19921;-77
2023/05/31 07:15:24;;;;;;;;;;;;;;;15.79;69.57;102508.97;5049758;28;20070;-77
2023/05/31 07:17:49;;;;;;;;;;;;;;;15.91;69.24;102509.63;5060277;28;19924;-77
2023/05/31 07:20:15;;;;;;;;;;;;;;;16.00;68.62;102503.25;5049837;28;20368;-77
2023/05/31 07:22:40;;;;;;;;;;;;;;;16.08;68.62;102495.09;5049715;28;19982;-77
2023/05/31 07:25:06;;;;;;;;;;;;;;;16.16;67.86;102490.47;5052094;28;19992;-77
2023/05/31 07:27:31;;;;;;;;;;;;;;;16.29;68.34;102488.44;5054576;28;20294;-77
2023/05/31 07:29:57;;;;;;;;;;;;;;;16.39;68.11;102482.00;5054850;28;19917;-76
2023/05/31 07:32:22;;;;;;;;;;;;;;;16.52;65.54;102488.00;5054611;28;20371;-77
2023/05/31 07:34:47;;;;;;;;;;;;;;;16.65;66.96;102480.59;5054805;28;19920;-77
2023/05/31 07:37:13;;;;;;;;;;;;;;;16.80;66.62;102476.75;5054745;28;20346;-77
2023/05/31 07:39:38;;;;;;;;;;;;;;;16.90;66.58;102476.50;5054510;28;20336;-77
2023/05/31 07:42:04;;;;;;;;;;;;;;;17.02;65.69;102475.34;5054572;28;20008;-77
2023/05/31 07:44:30;;;;;;;;;;;;;;;17.13;65.48;102477.78;5054251;28;19928;-77
2023/05/31 07:46:55;;;;;;;;;;;;;;;17.19;65.25;102477.66;5052989;28;19935;-77
2023/05/31 07:49:20;;;;;;;;;;;;;;;17.27;65.92;102474.78;5054315;28;19921;-77
2023/05/31 07:51:46;;;;;;;;;;;;;;;17.39;63.82;102477.19;5054549;28;19965;-77
2023/05/31 07:54:11;;;;;;;;;;;;;;;17.50;64.05;102475.09;5052886;28;19928;-77
2023/05/31 07:56:36;;;;;;;;;;;;;;;17.57;63.68;102471.34;5052529;28;19921;-77
2023/05/31 07:59:02;;;;;;;;;;;;;;;17.71;63.92;102472.81;5050084;28;19994;-72
2023/05/31 08:01:28;;;;;;;;;;;;;;;17.82;63.83;102470.75;5052431;28;19921;-72
2023/05/31 08:03:54;;;;;;;;;;;;;;;17.94;63.47;102473.09;5054016;28;20350;-72
2023/05/31 08:06:19;;;;;;;;;;;;;;;18.03;62.83;102464.81;5054179;28;19921;-72
2023/05/31 08:08:44;;;;;;;;;;;;;;;18.11;61.88;102469.97;5053751;28;19921;-72
2023/05/31 08:11:10;;;;;;;;;;;;;;;18.18;62.07;102466.22;5054094;28;20015;-72
2023/05/31 08:13:36;;;;;;;;;;;;;;;18.30;62.02;102467.66;5053633;28;20276;-73
2023/05/31 08:16:01;;;;;;;;;;;;;;;18.47;62.04;102460.03;5054116;28;19923;-72
2023/05/31 08:18:26;;;;;;;;;;;;;;;18.61;61.65;102458.72;5053651;28;19920;-71
2023/05/31 08:20:52;;;;;;;;;;;;;;;18.68;60.80;102462.97;5053926;28;19927;-72
2023/05/31 08:23:18;;;;;;;;;;;;;;;18.76;61.06;102454.72;5053591;28;20382;-72
2023/05/31 08:25:43;;;;;;;;;;;;;;;18.88;59.64;102457.03;5053656;28;19923;-72
2023/05/31 08:28:09;;;;;;;;;;;;;;;18.97;60.38;102458.56;5053600;28;20367;-72
2023/05/31 08:30:34;;;;;;;;;;;;;;;19.08;60.22;102451.91;5053662;28;19921;-72
2023/05/31 08:32:59;;;;;;;;;;;;;;;19.22;59.34;102447.91;5053545;28;19982;-72
2023/05/31 08:35:25;;;;;;;;;;;;;;;19.31;58.92;102451.19;5053484;28;19928;-72
2023/05/31 08:37:51;;;;;;;;;;;;;;;19.39;58.65;102447.38;5052931;28;19921;-72
2023/05/31 08:40:16;;;;;;;;;;;;;;;19.47;58.56;102446.16;5053415;28;20296;-72
2023/05/31 08:42:47;;;;;;;;;;;;;;;19.62;58.31;102444.78;5053141;28;19924;-72
2023/05/31 08:45:13;;;;;;;;;;;;;;;19.76;57.99;102447.91;5047825;28;19929;-72
2023/05/31 08:47:45;;;;;;;;;;;;;;;19.86;57.74;102445.75;5045550;28;19929;-72
2023/05/31 08:50:12;;;;;;;;;;;;;;;19.96;57.41;102443.63;5041415;28;19966;-72
2023/05/31 08:52:37;;;;;;;;;;;;;;;20.11;57.51;102440.38;5053017;28;19925;-72
2023/05/31 08:55:04;;;;;;;;;;;;;;;20.27;56.40;102442.50;5052946;28;19919;-72
2023/05/31 08:57:30;;;;;;;;;;;;;;;20.34;55.95;102446.72;5050644;28;19917;-72
2023/05/31 08:59:56;;;;;;;;;;;;;;;20.46;55.67;102443.56;5052698;28;20357;-72
2023/05/31 09:02:22;;;;;;;;;;;;;;;20.56;54.88;102439.63;5051906;28;20099;-72
2023/05/31 09:04:49;;;;;;;;;;;;;;;20.66;54.46;102437.44;5053028;28;20016;-72
2023/05/31 09:07:14;;;;;;;;;;;;;;;20.77;55.03;102437.00;5052852;28;19931;-71
2023/05/31 09:09:40;;;;;;;;;;;;;;;20.88;54.17;102432.09;5068096;28;19920;-73
2023/05/31 09:12:06;;;;;;;;;;;;;;;21.02;54.76;102436.94;5052755;28;20003;-72
2023/05/31 09:14:31;;;;;;;;;;;;;;;21.15;54.23;102431.94;5061562;28;19975;-73
2023/05/31 09:16:56;;;;;;;;;;;;;;;21.27;53.08;102435.00;5052902;28;20370;-72
2023/05/31 09:19:22;;;;;;;;;;;;;;;21.40;52.83;102429.13;5048340;28;19913;-72
2023/05/31 09:21:47;;;;;;;;;;;;;;;21.53;53.19;102426.78;5011950;28;19972;-72
2023/05/31 09:24:14;;;;;;;;;;;;;;;21.62;51.95;102432.66;5032279;28;19933;-72
2023/05/31 09:26:50;;;;;;;;;;;;;;;21.68;50.85;102431.50;5041889;28;19994;-72
2023/05/31 09:29:17;;;;;;;;;;;;;;;21.73;51.67;102429.47;5040554;28;19982;-72
2023/05/31 09:31:43;;;;;;;;;;;;;;;21.82;51.13;102421.00;5021711;28;19927;-72
2023/05/31 09:34:29;;;;;;;;;;;;;;;21.95;51.82;102415.91;5029672;28;19921;-73
2023/05/31 09:36:57;;;;;;;;;;;;;;;22.14;50.73;102415.97;5042580;28;19925;-73
2023/05/31 09:39:23;;;;;;;;;;;;;;;22.24;49.78;102406.53;5042290;28;19978;-72
2023/05/31 09:41:48;;;;;;;;;;;;;;;22.36;50.72;102398.84;5041379;28;19932;-73
2023/05/31 09:44:14;;;;;;;;;;;;;;;22.53;50.42;102404.31;5041471;28;19966;-73
2023/05/31 09:46:39;;;;;;;;;;;;;;;22.76;49.81;102398.66;5039346;28;20439;-72
2023/05/31 09:49:09;;;;;;;;;;;;;;;22.88;48.45;102396.34;5037253;28;19920;-73
2023/05/31 09:51:35;;;;;;;;;;;;;;;23.01;49.64;102396.63;5040853;28;19917;-73
2023/05/31 09:54:06;;;;;;;;;;;;;;;23.17;47.59;102401.19;5039445;28;20419;-73
2023/05/31 09:56:35;;;;;;;;;;;;;;;23.32;47.28;102393.28;5039267;28;20338;-72
2023/05/31 09:59:01;;;;;;;;;;;;;;;23.38;47.66;102391.09;5037786;28;21484;-73
2023/05/31 10:01:26;;;;;;;;;;;;;;;23.49;47.67;102389.69;5041623;28;19929;-73
2023/05/31 10:03:52;;;;;;;;;;;;;;;23.59;45.93;102391.84;5042116;28;19928;-72
2023/05/31 10:06:18;;;;;;;;;;;;;;;23.70;47.36;102399.38;5041244;28;19933;-72
2023/05/31 10:08:44;;;;;;;;;;;;;;;23.80;46.16;102386.28;5022121;28;19928;-72
2023/05/31 10:11:12;;;;;;;;;;;;;;;23.89;44.91;102396.63;5042033;28;19964;-73
2023/05/31 10:13:41;;;;;;;;;;;;;;;23.91;44.64;102389.31;5040683;28;19970;-72
2023/05/31 10:16:07;;;;;;;;;;;;;;;23.89;43.22;102384.94;5041191;28;20391;-72
2023/05/31 10:18:36;;;;;;;;;;;;;;;23.92;45.86;102380.22;5041306;28;19968;-72
2023/05/31 10:21:02;;;;;;;;;;;;;;;24.04;44.77;102375.97;5040023;28;19928;-72
2023/05/31 10:23:28;;;;;;;;;;;;;;;24.15;43.98;102376.25;5024013;28;20346;-72
2023/05/31 10:26:13;;;;;;;;;;;;;;;24.25;43.16;102377.47;5042259;28;19982;-72
2023/05/31 10:28:44;;;;;;;;;;;;;;;24.43;44.08;102378.31;5040883;28;20387;-72
2023/05/31 10:31:11;;;;;;;;;;;;;;;24.57;44.71;102363.16;5041734;28;19970;-72
2023/05/31 10:33:39;;;;;;;;;;;;;;;24.68;42.11;102363.41;5039828;28;19924;-72
2023/05/31 10:36:05;;;;;;;;;;;;;;;24.85;43.07;102365.13;5041510;28;19982;-72
2023/05/31 10:38:35;;;;;;;;;;;;;;;24.95;43.03;102360.03;5040078;28;19928;-72
2023/05/31 10:41:06;;;;;;;;;;;;;;;25.09;41.74;102355.56;5040653;28;19950;-72
2023/05/31 10:43:46;;;;;;;;;;;;;;;25.26;42.50;102354.59;5041578;28;19959;-72
2023/05/31 10:46:22;;;;;;;;;;;;;;;25.46;41.57;102347.09;5039551;28;19939;-72
2023/05/31 10:48:57;;;;;;;;;;;;;;;25.46;40.17;102341.66;5040543;28;19999;-73
2023/05/31 10:51:45;;;;;;;;;;;;;;;25.55;41.02;102327.56;5039952;28;19955;-72
2023/05/31 10:54:28;;;;;;;;;;;;;;;25.68;40.00;102335.78;5039313;28;19925;-72
2023/05/31 10:56:54;;;;;;;;;;;;;;;25.79;39.44;102333.31;5041514;28;19924;-73
2023/05/31 10:59:19;;;;;;;;;;;;;;;25.88;40.20;102327.31;5039343;28;19935;-72
2023/05/31 11:01:45;;;;;;;;;;;;;;;26.05;39.22;102325.38;5041919;28;20023;-72
2023/05/31 11:04:24;;;;;;;;;;;;;;;26.03;39.04;102328.16;5042653;28;19928;-72
2023/05/31 11:07:11;;;;;;;;;;;;;;;26.07;38.05;102332.44;5044377;28;19928;-72
2023/05/31 11:09:37;;;;;;;;;;;;;;;26.14;39.22;102324.78;5042273;28;19940;-72
2023/05/31 11:12:03;;;;;;;;;;;;;;;26.29;37.50;102320.22;5041235;28;19924;-72
2023/05/31 11:14:30;;;;;;;;;;;;;;;26.39;38.56;102321.34;5043690;28;19920;-72
2023/05/31 11:17:06;;;;;;;;;;;;;;;26.56;36.98;102325.72;5043110;28;19925;-72
2023/05/31 11:19:35;;;;;;;;;;;;;;;26.69;37.67;102320.31;5043954;28;19928;-72
2023/05/31 11:22:07;;;;;;;;;;;;;;;26.79;37.50;102316.00;5044089;28;20403;-72
2023/05/31 11:24:52;;;;;;;;;;;;;;;26.85;38.39;102306.56;5041973;28;19917;-73
2023/05/31 11:27:19;;;;;;;;;;;;;;;26.94;37.33;102306.81;5025890;28;19924;-72
2023/05/31 11:29:44;;;;;;;;;;;;;;;27.09;37.52;102312.19;5042072;28;20414;-73
2023/05/31 11:32:10;;;;;;;;;;;;;;;27.24;37.47;102312.00;5042696;28;19916;-73
2023/05/31 11:34:48;;;;;;;;;;;;;;;27.40;39.51;102313.69;5043915;28;20206;-73
2023/05/31 11:37:13;;;;;;;;;;;;;;;27.69;37.40;102308.88;5043286;28;20045;-72
2023/05/31 11:39:43;;;;;;;;;;;;;;;27.86;36.20;102315.88;5041956;28;19962;-72
2023/05/31 11:42:08;;;;;;;;;;;;;;;27.83;35.24;102308.81;5042517;28;19925;-72
2023/05/31 11:44:40;;;;;;;;;;;;;;;27.78;34.70;102299.22;5040848;28;19929;-72
2023/05/31 11:47:06;;;;;;;;;;;;;;;27.84;36.89;102307.84;5043716;28;19975;-72
2023/05/31 11:49:33;;;;;;;;;;;;;;;27.98;37.27;102309.56;5042928;28;20368;-77
2023/05/31 11:51:58;;;;;;;;;;;;;;;28.10;36.49;102305.06;5043603;28;19924;-78
2023/05/31 11:54:26;;;;;;;;;;;;;;;28.27;36.88;102292.94;5043941;28;20299;-77
2023/05/31 11:56:52;;;;;;;;;;;;;;;28.42;37.46;102299.09;5040556;28;19925;-77
2023/05/31 11:59:17;;;;;;;;;;;;;;;28.55;33.85;102297.22;5042936;28;20062;-78
2023/05/31 12:01:43;;;;;;;;;;;;;;;28.55;36.47;102296.34;5041760;28;19927;-78
2023/05/31 12:04:08;;;;;;;;;;;;;;;28.70;35.95;102287.88;5042832;28;20016;-78
2023/05/31 12:06:35;;;;;;;;;;;;;;;28.97;37.47;102283.16;5042226;28;19929;-78
2023/05/31 12:09:00;;;;;;;;;;;;;;;29.12;35.34;102288.31;5042974;28;21408;-77
2023/05/31 12:11:27;;;;;;;;;;;;;;;29.20;35.88;102284.97;5042738;28;19928;-78
2023/05/31 12:13:53;;;;;;;;;;;;;;;29.34;33.98;102273.00;5040563;28;19929;-78
2023/05/31 12:16:19;;;;;;;;;;;;;;;29.53;34.77;102264.22;5042960;28;19964;-77
2023/05/31 12:18:47;;;;;;;;;;;;;;;29.66;34.21;102272.31;5043335;28;20343;-77
2023/05/31 12:21:15;;;;;;;;;;;;;;;29.83;34.71;102270.97;5043003;28;20368;-78
2023/05/31 12:23:53;;;;;;;;;;;;;;;29.89;32.71;102254.91;5040217;28;20321;-78
2023/05/31 12:26:18;;;;;;;;;;;;;;;29.90;32.04;102253.09;5040118;28;19929;-77
2023/05/31 12:28:44;;;;;;;;;;;;;;;29.95;32.77;102265.34;5041614;28;19948;-77
2023/05/31 12:31:09;;;;;;;;;;;;;;;30.07;35.11;102247.09;5041374;28;19928;-77
2023/05/31 12:33:35;;;;;;;;;;;;;;;30.16;32.79;102249.03;5041761;28;19924;-78
2023/05/31 12:36:02;;;;;;;;;;;;;;;30.30;34.42;102247.06;5040686;28;19921;-77